DLH2PM LSZH-EDDF
Flight info
| Callsign | DLH2PM |
|---|---|
| Flight time | 0h 39m |
| Altitude | 24000 |
| Route | DEGES Z1 SUDEN T164 KOVAN T163 SPESA SPESA5B |
| Aircraft | A20N/M-SDE2E3FGHIRWXY/LB1 |
Departure
| Time | 2026-05-05 18:55 |
|---|---|
| Airport | Zürich Airport (LSZH) |
Arrival
| Time | 2026-05-05 19:35 |
|---|---|
| Airport | Frankfurt Main Airport (EDDF) |
| Time | Latitude | Longitude | Altitude | Speed | Heading |
|---|---|---|---|---|---|
| 2026-05-05 18:14 | 47.45336 | 8.55942 | 1425 ft | 0 kts | 6° |
| 2026-05-05 18:39 | 47.45325 | 8.55940 | 1425 ft | 2 kts | 6° |
| 2026-05-05 18:39 | 47.45310 | 8.55937 | 1425 ft | 2 kts | 7° |
| 2026-05-05 18:39 | 47.45295 | 8.55935 | 1425 ft | 2 kts | 6° |
| 2026-05-05 18:39 | 47.45280 | 8.55932 | 1425 ft | 1 kts | 7° |
| 2026-05-05 18:40 | 47.45270 | 8.55931 | 1425 ft | 2 kts | 348° |
| 2026-05-05 18:40 | 47.45257 | 8.55941 | 1425 ft | 2 kts | 317° |
| 2026-05-05 18:40 | 47.45249 | 8.55959 | 1425 ft | 1 kts | 285° |
| 2026-05-05 18:40 | 47.45248 | 8.55969 | 1425 ft | 1 kts | 272° |
| 2026-05-05 18:41 | 47.45247 | 8.55974 | 1425 ft | 0 kts | 276° |
| 2026-05-05 18:44 | 47.45248 | 8.55971 | 1425 ft | 0 kts | 276° |
| 2026-05-05 18:44 | 47.45249 | 8.55948 | 1425 ft | 4 kts | 276° |
| 2026-05-05 18:44 | 47.45255 | 8.55865 | 1425 ft | 10 kts | 276° |
| 2026-05-05 18:44 | 47.45263 | 8.55756 | 1425 ft | 11 kts | 277° |
| 2026-05-05 18:45 | 47.45272 | 8.55640 | 1425 ft | 11 kts | 277° |
| 2026-05-05 18:45 | 47.45309 | 8.55556 | 1425 ft | 10 kts | 336° |
| 2026-05-05 18:45 | 47.45379 | 8.55509 | 1425 ft | 11 kts | 336° |
| 2026-05-05 18:45 | 47.45453 | 8.55457 | 1425 ft | 12 kts | 334° |
| 2026-05-05 18:46 | 47.45512 | 8.55449 | 1425 ft | 8 kts | 59° |
| 2026-05-05 18:46 | 47.45524 | 8.55534 | 1425 ft | 9 kts | 97° |
| 2026-05-05 18:46 | 47.45517 | 8.55631 | 1425 ft | 10 kts | 96° |
| 2026-05-05 18:46 | 47.45509 | 8.55738 | 1425 ft | 10 kts | 96° |
| 2026-05-05 18:47 | 47.45501 | 8.55855 | 1425 ft | 11 kts | 96° |
| 2026-05-05 18:47 | 47.45492 | 8.55977 | 1425 ft | 12 kts | 97° |
| 2026-05-05 18:47 | 47.45482 | 8.56106 | 1425 ft | 12 kts | 97° |
| 2026-05-05 18:47 | 47.45485 | 8.56227 | 1425 ft | 11 kts | 62° |
| 2026-05-05 18:48 | 47.45534 | 8.56319 | 1425 ft | 11 kts | 51° |
| 2026-05-05 18:48 | 47.45579 | 8.56402 | 1425 ft | 7 kts | 51° |
| 2026-05-05 18:48 | 47.45594 | 8.56476 | 1425 ft | 8 kts | 95° |
| 2026-05-05 18:48 | 47.45588 | 8.56564 | 1425 ft | 8 kts | 96° |
| 2026-05-05 18:49 | 47.45582 | 8.56657 | 1425 ft | 9 kts | 95° |
| 2026-05-05 18:49 | 47.45575 | 8.56760 | 1425 ft | 10 kts | 97° |
| 2026-05-05 18:49 | 47.45571 | 8.56813 | 1425 ft | 0 kts | 96° |
| 2026-05-05 18:52 | 47.45571 | 8.56814 | 1425 ft | 0 kts | 96° |
| 2026-05-05 18:52 | 47.45570 | 8.56823 | 1425 ft | 1 kts | 96° |
| 2026-05-05 18:52 | 47.45569 | 8.56845 | 1425 ft | 2 kts | 96° |
| 2026-05-05 18:52 | 47.45566 | 8.56878 | 1425 ft | 3 kts | 96° |
| 2026-05-05 18:53 | 47.45563 | 8.56919 | 1425 ft | 2 kts | 96° |
| 2026-05-05 18:53 | 47.45563 | 8.56922 | 1425 ft | 0 kts | 96° |
| 2026-05-05 18:53 | 47.45563 | 8.56926 | 1425 ft | 1 kts | 96° |
| 2026-05-05 18:54 | 47.45561 | 8.56961 | 1425 ft | 6 kts | 86° |
| 2026-05-05 18:54 | 47.45607 | 8.57017 | 1425 ft | 10 kts | 5° |
| 2026-05-05 18:54 | 47.45663 | 8.57003 | 1425 ft | 2 kts | 295° |
| 2026-05-05 18:54 | 47.45664 | 8.56994 | 1425 ft | 0 kts | 275° |
| 2026-05-05 18:55 | 47.45666 | 8.56967 | 1425 ft | 14 kts | 275° |
| 2026-05-05 18:55 | 47.45705 | 8.56380 | 1425 ft | 97 kts | 276° |
| 2026-05-05 18:55 | 47.45799 | 8.55033 | 1460 ft | 158 kts | 275° |
| 2026-05-05 18:55 | 47.45904 | 8.53420 | 2107 ft | 161 kts | 274° |
| 2026-05-05 18:56 | 47.45995 | 8.51754 | 2818 ft | 167 kts | 272° |
| 2026-05-05 18:56 | 47.46061 | 8.50025 | 3434 ft | 179 kts | 272° |
| 2026-05-05 18:56 | 47.46140 | 8.48121 | 3925 ft | 196 kts | 263° |
| 2026-05-05 18:56 | 47.45548 | 8.46256 | 4331 ft | 216 kts | 220° |
| 2026-05-05 18:57 | 47.44288 | 8.45073 | 4955 ft | 218 kts | 213° |
| 2026-05-05 18:57 | 47.43241 | 8.43520 | 5840 ft | 221 kts | 243° |
| 2026-05-05 18:57 | 47.42827 | 8.41373 | 6855 ft | 220 kts | 259° |
| 2026-05-05 18:57 | 47.42602 | 8.39149 | 7757 ft | 222 kts | 254° |
| 2026-05-05 18:58 | 47.41869 | 8.37151 | 8329 ft | 235 kts | 221° |
| 2026-05-05 18:58 | 47.40332 | 8.36158 | 8838 ft | 257 kts | 187° |
| 2026-05-05 18:58 | 47.38532 | 8.36665 | 9417 ft | 281 kts | 155° |
| 2026-05-05 18:58 | 47.37115 | 8.38689 | 10223 ft | 299 kts | 123° |
| 2026-05-05 18:59 | 47.36506 | 8.41706 | 10837 ft | 322 kts | 95° |
| 2026-05-05 18:59 | 47.36665 | 8.45081 | 11322 ft | 342 kts | 83° |
| 2026-05-05 18:59 | 47.37052 | 8.48615 | 11742 ft | 361 kts | 82° |
| 2026-05-05 18:59 | 47.37443 | 8.52425 | 11879 ft | 388 kts | 84° |
| 2026-05-05 19:00 | 47.37781 | 8.56438 | 11876 ft | 404 kts | 85° |
| 2026-05-05 19:00 | 47.38073 | 8.60611 | 11877 ft | 406 kts | 86° |
| 2026-05-05 19:00 | 47.38329 | 8.64762 | 12025 ft | 415 kts | 86° |
| 2026-05-05 19:00 | 47.38574 | 8.68985 | 12807 ft | 417 kts | 87° |
| 2026-05-05 19:01 | 47.38813 | 8.73250 | 13706 ft | 417 kts | 87° |
| 2026-05-05 19:01 | 47.39047 | 8.77508 | 14421 ft | 421 kts | 87° |
| 2026-05-05 19:01 | 47.39281 | 8.81855 | 15111 ft | 426 kts | 87° |
| 2026-05-05 19:01 | 47.39539 | 8.86190 | 15781 ft | 431 kts | 84° |
| 2026-05-05 19:02 | 47.40436 | 8.90423 | 16383 ft | 438 kts | 62° |
| 2026-05-05 19:02 | 47.42323 | 8.93904 | 17049 ft | 440 kts | 39° |
| 2026-05-05 19:02 | 47.44922 | 8.96236 | 17713 ft | 439 kts | 22° |
| 2026-05-05 19:02 | 47.47736 | 8.97899 | 18315 ft | 442 kts | 19° |
| 2026-05-05 19:03 | 47.50616 | 8.99527 | 18844 ft | 448 kts | 20° |
| 2026-05-05 19:03 | 47.53507 | 9.01273 | 19386 ft | 453 kts | 21° |
| 2026-05-05 19:03 | 47.56380 | 9.03125 | 19927 ft | 457 kts | 22° |
| 2026-05-05 19:03 | 47.59280 | 9.05078 | 20467 ft | 461 kts | 23° |
| 2026-05-05 19:04 | 47.62186 | 9.07088 | 20997 ft | 465 kts | 24° |
| 2026-05-05 19:04 | 47.65129 | 9.09153 | 21509 ft | 469 kts | 24° |
| 2026-05-05 19:04 | 47.68086 | 9.11242 | 21835 ft | 472 kts | 24° |
| 2026-05-05 19:04 | 47.71039 | 9.13338 | 21874 ft | 473 kts | 24° |
| 2026-05-05 19:05 | 47.73972 | 9.15427 | 21876 ft | 472 kts | 24° |
| 2026-05-05 19:05 | 47.76942 | 9.17545 | 21877 ft | 472 kts | 24° |
| 2026-05-05 19:05 | 47.79880 | 9.19643 | 21877 ft | 472 kts | 24° |
| 2026-05-05 19:05 | 47.82843 | 9.21761 | 21877 ft | 473 kts | 24° |
| 2026-05-05 19:06 | 47.85801 | 9.23878 | 21941 ft | 477 kts | 24° |
| 2026-05-05 19:06 | 47.88774 | 9.26007 | 22420 ft | 480 kts | 24° |
| 2026-05-05 19:06 | 47.91792 | 9.28171 | 22797 ft | 482 kts | 24° |
| 2026-05-05 19:06 | 47.94819 | 9.30345 | 22869 ft | 482 kts | 24° |
| 2026-05-05 19:07 | 47.97836 | 9.32516 | 22870 ft | 481 kts | 24° |
| 2026-05-05 19:07 | 48.00817 | 9.34666 | 22870 ft | 481 kts | 24° |
| 2026-05-05 19:07 | 48.03813 | 9.36830 | 22870 ft | 481 kts | 24° |
| 2026-05-05 19:07 | 48.06831 | 9.39012 | 22872 ft | 481 kts | 24° |
| 2026-05-05 19:08 | 48.09819 | 9.41174 | 22873 ft | 481 kts | 24° |
| 2026-05-05 19:08 | 48.12794 | 9.43305 | 22871 ft | 481 kts | 22° |
| 2026-05-05 19:08 | 48.15891 | 9.44999 | 22872 ft | 479 kts | 14° |
| 2026-05-05 19:08 | 48.19152 | 9.46010 | 22873 ft | 477 kts | 5° |
| 2026-05-05 19:09 | 48.22422 | 9.46317 | 22877 ft | 475 kts | 358° |
| 2026-05-05 19:09 | 48.25716 | 9.46318 | 22874 ft | 474 kts | 356° |
| 2026-05-05 19:09 | 48.29004 | 9.46254 | 22870 ft | 474 kts | 356° |
| 2026-05-05 19:09 | 48.32319 | 9.46199 | 22867 ft | 474 kts | 356° |
| 2026-05-05 19:10 | 48.35592 | 9.46068 | 22863 ft | 474 kts | 354° |
| 2026-05-05 19:10 | 48.38862 | 9.45821 | 22859 ft | 474 kts | 354° |
| 2026-05-05 19:10 | 48.42173 | 9.45545 | 22854 ft | 474 kts | 354° |
| 2026-05-05 19:10 | 48.45434 | 9.45278 | 22848 ft | 474 kts | 354° |
| 2026-05-05 19:11 | 48.48692 | 9.45021 | 22842 ft | 474 kts | 354° |
| 2026-05-05 19:11 | 48.51996 | 9.44769 | 22837 ft | 474 kts | 354° |
| 2026-05-05 19:11 | 48.55294 | 9.44524 | 22832 ft | 474 kts | 354° |
| 2026-05-05 19:11 | 48.58535 | 9.44286 | 22829 ft | 474 kts | 354° |
| 2026-05-05 19:12 | 48.61816 | 9.44046 | 22826 ft | 474 kts | 354° |
| 2026-05-05 19:12 | 48.65124 | 9.43805 | 22825 ft | 473 kts | 354° |
| 2026-05-05 19:12 | 48.68407 | 9.43566 | 22824 ft | 473 kts | 354° |
| 2026-05-05 19:12 | 48.71664 | 9.43329 | 22823 ft | 473 kts | 354° |
| 2026-05-05 19:13 | 48.74934 | 9.43090 | 22822 ft | 473 kts | 354° |
| 2026-05-05 19:13 | 48.78212 | 9.42851 | 22822 ft | 473 kts | 354° |
| 2026-05-05 19:13 | 48.81497 | 9.42611 | 22822 ft | 473 kts | 354° |
| 2026-05-05 19:13 | 48.84775 | 9.42371 | 22822 ft | 473 kts | 354° |
| 2026-05-05 19:14 | 48.88045 | 9.42132 | 22822 ft | 473 kts | 354° |
| 2026-05-05 19:14 | 48.91321 | 9.41892 | 22822 ft | 473 kts | 354° |
| 2026-05-05 19:14 | 48.94577 | 9.41653 | 22822 ft | 473 kts | 354° |
| 2026-05-05 19:14 | 48.97893 | 9.41408 | 22821 ft | 473 kts | 354° |
| 2026-05-05 19:15 | 49.01157 | 9.41161 | 22822 ft | 482 kts | 355° |
| 2026-05-05 19:15 | 49.04513 | 9.40905 | 22821 ft | 487 kts | 355° |
| 2026-05-05 19:15 | 49.07912 | 9.40648 | 22482 ft | 488 kts | 356° |
| 2026-05-05 19:15 | 49.11209 | 9.40402 | 21817 ft | 482 kts | 356° |
| 2026-05-05 19:16 | 49.14501 | 9.40160 | 21145 ft | 475 kts | 356° |
| 2026-05-05 19:16 | 49.17783 | 9.39924 | 20467 ft | 470 kts | 356° |
| 2026-05-05 19:16 | 49.20974 | 9.39694 | 19800 ft | 464 kts | 356° |
| 2026-05-05 19:16 | 49.24180 | 9.39461 | 19122 ft | 459 kts | 356° |
| 2026-05-05 19:17 | 49.27316 | 9.39231 | 18450 ft | 453 kts | 356° |
| 2026-05-05 19:17 | 49.30449 | 9.38999 | 17772 ft | 448 kts | 356° |
| 2026-05-05 19:17 | 49.33521 | 9.38771 | 17098 ft | 443 kts | 356° |
| 2026-05-05 19:17 | 49.36577 | 9.38543 | 16420 ft | 438 kts | 356° |
| 2026-05-05 19:18 | 49.39576 | 9.38319 | 15748 ft | 433 kts | 356° |
| 2026-05-05 19:18 | 49.42540 | 9.38098 | 15075 ft | 428 kts | 356° |
| 2026-05-05 19:18 | 49.45495 | 9.37884 | 14397 ft | 423 kts | 356° |
| 2026-05-05 19:18 | 49.48419 | 9.37678 | 13763 ft | 417 kts | 356° |
| 2026-05-05 19:19 | 49.51272 | 9.37479 | 13142 ft | 412 kts | 356° |
| 2026-05-05 19:19 | 49.54082 | 9.37285 | 12522 ft | 407 kts | 356° |
| 2026-05-05 19:19 | 49.56883 | 9.37092 | 11897 ft | 402 kts | 356° |
| 2026-05-05 19:19 | 49.59634 | 9.36903 | 11277 ft | 389 kts | 356° |
| 2026-05-05 19:20 | 49.62268 | 9.36721 | 10654 ft | 375 kts | 356° |
| 2026-05-05 19:20 | 49.64863 | 9.36530 | 10039 ft | 366 kts | 354° |
| 2026-05-05 19:20 | 49.67306 | 9.35872 | 9372 ft | 354 kts | 345° |
| 2026-05-05 19:20 | 49.69646 | 9.34893 | 8592 ft | 348 kts | 343° |
| 2026-05-05 19:21 | 49.71926 | 9.33870 | 7768 ft | 344 kts | 342° |
| 2026-05-05 19:21 | 49.74188 | 9.32838 | 7145 ft | 339 kts | 342° |
| 2026-05-05 19:21 | 49.76447 | 9.31799 | 6830 ft | 336 kts | 342° |
| 2026-05-05 19:21 | 49.78589 | 9.30814 | 6796 ft | 307 kts | 342° |
| 2026-05-05 19:22 | 49.80531 | 9.29923 | 6791 ft | 287 kts | 342° |
| 2026-05-05 19:22 | 49.82429 | 9.29054 | 6789 ft | 284 kts | 342° |
| 2026-05-05 19:22 | 49.84333 | 9.28181 | 6793 ft | 284 kts | 342° |
| 2026-05-05 19:22 | 49.86226 | 9.27314 | 6795 ft | 284 kts | 342° |
| 2026-05-05 19:23 | 49.88107 | 9.26451 | 6796 ft | 284 kts | 342° |
| 2026-05-05 19:23 | 49.89994 | 9.25585 | 6796 ft | 284 kts | 342° |
| 2026-05-05 19:23 | 49.91878 | 9.24720 | 6796 ft | 284 kts | 342° |
| 2026-05-05 19:23 | 49.93756 | 9.23858 | 6796 ft | 284 kts | 342° |
| 2026-05-05 19:24 | 49.95624 | 9.23000 | 6789 ft | 270 kts | 342° |
| 2026-05-05 19:24 | 49.97345 | 9.22213 | 6786 ft | 254 kts | 342° |
| 2026-05-05 19:24 | 49.99007 | 9.21455 | 6650 ft | 246 kts | 342° |
| 2026-05-05 19:24 | 50.00648 | 9.20705 | 6271 ft | 248 kts | 342° |
| 2026-05-05 19:25 | 50.02307 | 9.19945 | 5938 ft | 247 kts | 342° |
| 2026-05-05 19:25 | 50.03925 | 9.19200 | 5628 ft | 245 kts | 342° |
| 2026-05-05 19:25 | 50.05563 | 9.18444 | 5312 ft | 244 kts | 342° |
| 2026-05-05 19:25 | 50.07178 | 9.17695 | 4999 ft | 242 kts | 342° |
| 2026-05-05 19:26 | 50.08780 | 9.16950 | 4688 ft | 241 kts | 342° |
| 2026-05-05 19:26 | 50.10359 | 9.16214 | 4381 ft | 239 kts | 342° |
| 2026-05-05 19:26 | 50.11937 | 9.15476 | 4085 ft | 237 kts | 342° |
| 2026-05-05 19:26 | 50.13460 | 9.14538 | 3989 ft | 236 kts | 323° |
| 2026-05-05 19:27 | 50.14522 | 9.12617 | 3992 ft | 234 kts | 293° |
| 2026-05-05 19:27 | 50.15064 | 9.10249 | 4008 ft | 234 kts | 282° |
| 2026-05-05 19:27 | 50.15223 | 9.07762 | 4001 ft | 232 kts | 265° |
| 2026-05-05 19:27 | 50.14973 | 9.05305 | 3996 ft | 225 kts | 253° |
| 2026-05-05 19:28 | 50.14554 | 9.03032 | 3985 ft | 210 kts | 252° |
| 2026-05-05 19:28 | 50.14122 | 9.00868 | 3992 ft | 208 kts | 250° |
| 2026-05-05 19:28 | 50.13667 | 8.98750 | 3995 ft | 208 kts | 249° |
| 2026-05-05 19:28 | 50.13183 | 8.96615 | 3991 ft | 202 kts | 249° |
| 2026-05-05 19:29 | 50.12732 | 8.94684 | 4064 ft | 181 kts | 248° |
| 2026-05-05 19:29 | 50.12301 | 8.92885 | 4021 ft | 175 kts | 248° |
| 2026-05-05 19:29 | 50.11871 | 8.91119 | 4006 ft | 174 kts | 247° |
| 2026-05-05 19:29 | 50.11441 | 8.89358 | 4000 ft | 174 kts | 247° |
| 2026-05-05 19:30 | 50.11005 | 8.87581 | 3998 ft | 173 kts | 247° |
| 2026-05-05 19:30 | 50.10578 | 8.85842 | 3959 ft | 174 kts | 247° |
| 2026-05-05 19:30 | 50.10148 | 8.84080 | 3756 ft | 173 kts | 247° |
| 2026-05-05 19:30 | 50.09723 | 8.82339 | 3525 ft | 173 kts | 248° |
| 2026-05-05 19:31 | 50.09299 | 8.80599 | 3297 ft | 172 kts | 248° |
| 2026-05-05 19:31 | 50.08871 | 8.78837 | 3066 ft | 172 kts | 248° |
| 2026-05-05 19:31 | 50.08453 | 8.77113 | 2840 ft | 172 kts | 248° |
| 2026-05-05 19:31 | 50.08034 | 8.75381 | 2609 ft | 169 kts | 248° |
| 2026-05-05 19:32 | 50.07626 | 8.73690 | 2381 ft | 164 kts | 248° |
| 2026-05-05 19:32 | 50.07232 | 8.72054 | 2160 ft | 158 kts | 248° |
| 2026-05-05 19:32 | 50.06864 | 8.70531 | 1971 ft | 144 kts | 248° |
| 2026-05-05 19:32 | 50.06530 | 8.69143 | 1773 ft | 134 kts | 248° |
| 2026-05-05 19:33 | 50.06201 | 8.67777 | 1601 ft | 133 kts | 248° |
| 2026-05-05 19:33 | 50.05882 | 8.66451 | 1430 ft | 132 kts | 248° |
| 2026-05-05 19:33 | 50.05563 | 8.65114 | 1244 ft | 132 kts | 248° |
| 2026-05-05 19:33 | 50.05239 | 8.63772 | 1069 ft | 132 kts | 248° |
| 2026-05-05 19:34 | 50.04911 | 8.62439 | 889 ft | 132 kts | 248° |
| 2026-05-05 19:34 | 50.04589 | 8.61100 | 765 ft | 132 kts | 249° |
| 2026-05-05 19:34 | 50.04274 | 8.59766 | 577 ft | 132 kts | 249° |
| 2026-05-05 19:35 | 50.03666 | 8.57229 | 371 ft | 95 kts | 249° |
| 2026-05-05 19:35 | 50.03497 | 8.56522 | 371 ft | 45 kts | 250° |
| 2026-05-05 19:35 | 50.03429 | 8.56173 | 371 ft | 26 kts | 268° |
| 2026-05-05 19:35 | 50.03448 | 8.55957 | 371 ft | 17 kts | 279° |
| 2026-05-05 19:36 | 50.03461 | 8.55839 | 371 ft | 10 kts | 280° |
| 2026-05-05 19:36 | 50.03466 | 8.55787 | 371 ft | 0 kts | 279° |
| 2026-05-05 19:36 | 50.03466 | 8.55784 | 371 ft | 0 kts | 279° |
| 2026-05-05 19:36 | 50.03469 | 8.55759 | 371 ft | 4 kts | 279° |
| 2026-05-05 19:37 | 50.03497 | 8.55703 | 371 ft | 9 kts | 343° |
| 2026-05-05 19:37 | 50.03562 | 8.55763 | 371 ft | 14 kts | 68° |
| 2026-05-05 19:37 | 50.03603 | 8.55932 | 371 ft | 18 kts | 70° |
| 2026-05-05 19:37 | 50.03651 | 8.56140 | 371 ft | 22 kts | 71° |
| 2026-05-05 19:38 | 50.03708 | 8.56375 | 371 ft | 24 kts | 69° |
| 2026-05-05 19:38 | 50.03772 | 8.56639 | 371 ft | 26 kts | 70° |
| 2026-05-05 19:38 | 50.03836 | 8.56908 | 371 ft | 26 kts | 69° |
| 2026-05-05 19:38 | 50.03900 | 8.57172 | 371 ft | 25 kts | 70° |
| 2026-05-05 19:39 | 50.03961 | 8.57428 | 371 ft | 24 kts | 70° |
| 2026-05-05 19:39 | 50.04016 | 8.57663 | 371 ft | 23 kts | 70° |
| 2026-05-05 19:39 | 50.04074 | 8.57901 | 371 ft | 22 kts | 70° |
| 2026-05-05 19:39 | 50.04128 | 8.58128 | 371 ft | 22 kts | 70° |
| 2026-05-05 19:40 | 50.04180 | 8.58347 | 371 ft | 21 kts | 70° |
| 2026-05-05 19:40 | 50.04232 | 8.58561 | 371 ft | 20 kts | 70° |
| 2026-05-05 19:40 | 50.04282 | 8.58769 | 371 ft | 20 kts | 70° |
| 2026-05-05 19:40 | 50.04330 | 8.58972 | 371 ft | 20 kts | 70° |
| 2026-05-05 19:41 | 50.04379 | 8.59173 | 371 ft | 19 kts | 70° |
| 2026-05-05 19:41 | 50.04424 | 8.59364 | 371 ft | 14 kts | 70° |
| 2026-05-05 19:41 | 50.04475 | 8.59469 | 371 ft | 12 kts | 17° |
| 2026-05-05 19:41 | 50.04538 | 8.59471 | 371 ft | 4 kts | 356° |
| 2026-05-05 19:42 | 50.04541 | 8.59471 | 371 ft | 0 kts | 356° |
| 2026-05-05 19:42 | 50.04548 | 8.59470 | 371 ft | 3 kts | 356° |
| 2026-05-05 19:43 | 50.04619 | 8.59464 | 371 ft | 15 kts | 357° |
| 2026-05-05 19:43 | 50.04722 | 8.59432 | 371 ft | 15 kts | 339° |
| 2026-05-05 19:43 | 50.04816 | 8.59378 | 371 ft | 9 kts | 339° |
| 2026-05-05 19:43 | 50.04850 | 8.59358 | 371 ft | 3 kts | 339° |
| 2026-05-05 19:44 | 50.04883 | 8.59362 | 371 ft | 6 kts | 17° |
| 2026-05-05 19:44 | 50.04939 | 8.59373 | 371 ft | 9 kts | 349° |
| 2026-05-05 19:44 | 50.05005 | 8.59333 | 371 ft | 10 kts | 340° |
| 2026-05-05 19:44 | 50.05072 | 8.59278 | 371 ft | 11 kts | 305° |
| 2026-05-05 19:45 | 50.05066 | 8.59156 | 371 ft | 12 kts | 250° |
| 2026-05-05 19:45 | 50.05037 | 8.59033 | 371 ft | 9 kts | 249° |
| 2026-05-05 19:45 | 50.05022 | 8.58973 | 371 ft | 2 kts | 249° |
| 2026-05-05 19:45 | 50.05014 | 8.58940 | 371 ft | 3 kts | 249° |
| 2026-05-05 19:46 | 50.04996 | 8.58906 | 371 ft | 4 kts | 185° |
| 2026-05-05 19:46 | 50.04958 | 8.58925 | 371 ft | 6 kts | 160° |
| 2026-05-05 19:46 | 50.04937 | 8.58937 | 371 ft | 0 kts | 160° |